sensor_id;sensor_type;location;lat;lon;timestamp;temperature;humidity
11591;DHT22;5851;54.050;9.974;2023-12-20T00:01:00;6.10;99.90
11591;DHT22;5851;54.050;9.974;2023-12-20T00:03:28;6.10;99.90
11591;DHT22;5851;54.050;9.974;2023-12-20T00:05:55;6.10;99.90
11591;DHT22;5851;54.050;9.974;2023-12-20T00:08:22;6.00;99.90
11591;DHT22;5851;54.050;9.974;2023-12-20T00:10:49;6.00;99.90
11591;DHT22;5851;54.050;9.974;2023-12-20T00:13:15;6.00;99.90
11591;DHT22;5851;54.050;9.974;2023-12-20T00:15:42;6.00;99.90
11591;DHT22;5851;54.050;9.974;2023-12-20T00:18:09;6.00;99.90
11591;DHT22;5851;54.050;9.974;2023-12-20T00:20:37;6.00;99.90
11591;DHT22;5851;54.050;9.974;2023-12-20T00:23:04;6.00;99.90
11591;DHT22;5851;54.050;9.974;2023-12-20T00:25:31;6.10;99.90
11591;DHT22;5851;54.050;9.974;2023-12-20T00:27:58;6.10;99.90
11591;DHT22;5851;54.050;9.974;2023-12-20T00:30:25;5.90;99.90
11591;DHT22;5851;54.050;9.974;2023-12-20T00:32:52;6.00;99.90
11591;DHT22;5851;54.050;9.974;2023-12-20T00:35:19;6.00;99.90
11591;DHT22;5851;54.050;9.974;2023-12-20T00:37:47;6.00;99.90
11591;DHT22;5851;54.050;9.974;2023-12-20T00:40:14;6.00;99.90
11591;DHT22;5851;54.050;9.974;2023-12-20T00:42:41;6.00;99.90
11591;DHT22;5851;54.050;9.974;2023-12-20T00:45:08;6.00;99.90
11591;DHT22;5851;54.050;9.974;2023-12-20T00:47:35;6.00;99.90
11591;DHT22;5851;54.050;9.974;2023-12-20T00:50:02;6.00;99.90
11591;DHT22;5851;54.050;9.974;2023-12-20T00:52:29;6.00;99.90
11591;DHT22;5851;54.050;9.974;2023-12-20T00:54:57;6.00;99.90
11591;DHT22;5851;54.050;9.974;2023-12-20T00:57:24;6.00;99.90
11591;DHT22;5851;54.050;9.974;2023-12-20T00:59:51;6.00;99.90
11591;DHT22;5851;54.050;9.974;2023-12-20T01:02:18;6.10;99.90
11591;DHT22;5851;54.050;9.974;2023-12-20T01:04:45;6.10;99.90
11591;DHT22;5851;54.050;9.974;2023-12-20T01:07:12;5.90;99.90
11591;DHT22;5851;54.050;9.974;2023-12-20T01:09:39;6.00;99.90
11591;DHT22;5851;54.050;9.974;2023-12-20T01:12:07;5.90;99.90
11591;DHT22;5851;54.050;9.974;2023-12-20T01:14:34;5.90;99.90
11591;DHT22;5851;54.050;9.974;2023-12-20T01:17:01;5.80;99.90
11591;DHT22;5851;54.050;9.974;2023-12-20T01:19:28;5.80;99.90
11591;DHT22;5851;54.050;9.974;2023-12-20T01:21:55;5.80;99.90
11591;DHT22;5851;54.050;9.974;2023-12-20T01:24:22;6.00;99.90
11591;DHT22;5851;54.050;9.974;2023-12-20T01:26:49;5.90;99.90
11591;DHT22;5851;54.050;9.974;2023-12-20T01:29:17;5.90;99.90
11591;DHT22;5851;54.050;9.974;2023-12-20T01:31:45;5.90;99.90
11591;DHT22;5851;54.050;9.974;2023-12-20T01:34:11;6.00;99.90
11591;DHT22;5851;54.050;9.974;2023-12-20T01:36:38;6.10;99.90
11591;DHT22;5851;54.050;9.974;2023-12-20T01:39:05;6.00;99.90
11591;DHT22;5851;54.050;9.974;2023-12-20T01:41:32;6.00;99.90
11591;DHT22;5851;54.050;9.974;2023-12-20T01:43:59;6.00;99.90
11591;DHT22;5851;54.050;9.974;2023-12-20T01:46:27;6.00;99.90
11591;DHT22;5851;54.050;9.974;2023-12-20T01:48:54;5.90;99.90
11591;DHT22;5851;54.050;9.974;2023-12-20T01:51:22;5.90;99.90
11591;DHT22;5851;54.050;9.974;2023-12-20T01:53:49;5.90;99.90
11591;DHT22;5851;54.050;9.974;2023-12-20T01:56:16;6.00;99.90
11591;DHT22;5851;54.050;9.974;2023-12-20T01:58:45;5.90;99.90
11591;DHT22;5851;54.050;9.974;2023-12-20T02:01:13;5.90;99.90
11591;DHT22;5851;54.050;9.974;2023-12-20T02:03:41;5.90;99.90
11591;DHT22;5851;54.050;9.974;2023-12-20T02:06:09;5.90;99.90
11591;DHT22;5851;54.050;9.974;2023-12-20T02:08:36;5.90;99.90
11591;DHT22;5851;54.050;9.974;2023-12-20T02:11:03;6.00;99.90
11591;DHT22;5851;54.050;9.974;2023-12-20T02:13:30;5.90;99.90
11591;DHT22;5851;54.050;9.974;2023-12-20T02:15:57;5.90;99.90
11591;DHT22;5851;54.050;9.974;2023-12-20T02:18:24;5.90;99.90
11591;DHT22;5851;54.050;9.974;2023-12-20T02:20:53;5.90;99.90
11591;DHT22;5851;54.050;9.974;2023-12-20T02:23:22;5.80;99.90
11591;DHT22;5851;54.050;9.974;2023-12-20T02:25:48;5.90;99.90
11591;DHT22;5851;54.050;9.974;2023-12-20T02:28:16;5.90;99.90
11591;DHT22;5851;54.050;9.974;2023-12-20T02:30:43;5.80;99.90
11591;DHT22;5851;54.050;9.974;2023-12-20T02:33:12;5.70;99.90
11591;DHT22;5851;54.050;9.974;2023-12-20T02:35:40;5.70;99.90
11591;DHT22;5851;54.050;9.974;2023-12-20T02:38:07;5.70;99.90
11591;DHT22;5851;54.050;9.974;2023-12-20T02:40:35;5.70;99.90
11591;DHT22;5851;54.050;9.974;2023-12-20T02:43:03;5.80;99.90
11591;DHT22;5851;54.050;9.974;2023-12-20T02:45:30;5.80;99.90
11591;DHT22;5851;54.050;9.974;2023-12-20T02:47:56;5.80;99.90
11591;DHT22;5851;54.050;9.974;2023-12-20T02:50:24;5.80;99.90
11591;DHT22;5851;54.050;9.974;2023-12-20T02:52:50;5.80;99.90
11591;DHT22;5851;54.050;9.974;2023-12-20T02:55:17;5.70;99.90
11591;DHT22;5851;54.050;9.974;2023-12-20T02:57:46;5.80;99.90
11591;DHT22;5851;54.050;9.974;2023-12-20T03:00:13;5.70;99.90
11591;DHT22;5851;54.050;9.974;2023-12-20T03:02:40;5.70;99.90
11591;DHT22;5851;54.050;9.974;2023-12-20T03:05:07;5.80;99.90
11591;DHT22;5851;54.050;9.974;2023-12-20T03:07:34;5.80;99.90
11591;DHT22;5851;54.050;9.974;2023-12-20T03:10:00;5.80;99.90
11591;DHT22;5851;54.050;9.974;2023-12-20T03:12:28;5.70;99.90
11591;DHT22;5851;54.050;9.974;2023-12-20T03:14:56;5.70;99.90
11591;DHT22;5851;54.050;9.974;2023-12-20T03:17:23;5.80;99.90
11591;DHT22;5851;54.050;9.974;2023-12-20T03:19:50;5.80;99.90
11591;DHT22;5851;54.050;9.974;2023-12-20T03:22:17;5.90;99.90
11591;DHT22;5851;54.050;9.974;2023-12-20T03:24:44;5.70;99.90
11591;DHT22;5851;54.050;9.974;2023-12-20T03:27:11;5.90;99.90
11591;DHT22;5851;54.050;9.974;2023-12-20T03:29:38;5.80;99.90
11591;DHT22;5851;54.050;9.974;2023-12-20T03:32:06;5.80;99.90
11591;DHT22;5851;54.050;9.974;2023-12-20T03:34:34;5.80;99.90
11591;DHT22;5851;54.050;9.974;2023-12-20T03:37:01;5.70;99.90
11591;DHT22;5851;54.050;9.974;2023-12-20T03:39:28;5.70;99.90
11591;DHT22;5851;54.050;9.974;2023-12-20T03:41:54;5.70;99.90
11591;DHT22;5851;54.050;9.974;2023-12-20T03:44:21;5.70;99.90
11591;DHT22;5851;54.050;9.974;2023-12-20T03:46:48;5.80;99.90
11591;DHT22;5851;54.050;9.974;2023-12-20T03:49:17;5.80;99.90
11591;DHT22;5851;54.050;9.974;2023-12-20T03:51:43;5.80;99.90
11591;DHT22;5851;54.050;9.974;2023-12-20T03:54:10;5.80;99.90
11591;DHT22;5851;54.050;9.974;2023-12-20T03:56:37;5.80;99.90
11591;DHT22;5851;54.050;9.974;2023-12-20T03:59:04;5.60;99.90
11591;DHT22;5851;54.050;9.974;2023-12-20T04:01:31;5.70;99.90
11591;DHT22;5851;54.050;9.974;2023-12-20T04:03:58;5.80;99.90
11591;DHT22;5851;54.050;9.974;2023-12-20T04:06:26;5.80;99.90
11591;DHT22;5851;54.050;9.974;2023-12-20T04:08:53;5.80;99.90
11591;DHT22;5851;54.050;9.974;2023-12-20T04:11:20;5.90;99.90
11591;DHT22;5851;54.050;9.974;2023-12-20T04:13:47;5.90;99.90
11591;DHT22;5851;54.050;9.974;2023-12-20T04:16:14;5.80;99.90
11591;DHT22;5851;54.050;9.974;2023-12-20T04:18:41;5.90;99.90
11591;DHT22;5851;54.050;9.974;2023-12-20T04:21:08;5.90;99.90
11591;DHT22;5851;54.050;9.974;2023-12-20T04:23:36;5.80;99.90
11591;DHT22;5851;54.050;9.974;2023-12-20T04:26:03;5.80;99.90
11591;DHT22;5851;54.050;9.974;2023-12-20T04:28:30;5.80;99.90
11591;DHT22;5851;54.050;9.974;2023-12-20T04:30:57;5.80;99.90
11591;DHT22;5851;54.050;9.974;2023-12-20T04:33:23;5.70;99.90
11591;DHT22;5851;54.050;9.974;2023-12-20T04:35:50;5.70;99.90
11591;DHT22;5851;54.050;9.974;2023-12-20T04:38:17;5.80;99.90
11591;DHT22;5851;54.050;9.974;2023-12-20T04:40:46;5.80;99.90
11591;DHT22;5851;54.050;9.974;2023-12-20T04:43:13;5.70;99.90
11591;DHT22;5851;54.050;9.974;2023-12-20T04:45:40;5.70;99.90
11591;DHT22;5851;54.050;9.974;2023-12-20T04:48:07;5.80;99.90
11591;DHT22;5851;54.050;9.974;2023-12-20T04:50:34;5.90;99.90
11591;DHT22;5851;54.050;9.974;2023-12-20T04:53:01;5.90;99.90
11591;DHT22;5851;54.050;9.974;2023-12-20T04:55:28;5.80;99.90
11591;DHT22;5851;54.050;9.974;2023-12-20T04:57:56;5.80;99.90
11591;DHT22;5851;54.050;9.974;2023-12-20T05:00:23;5.80;99.90
11591;DHT22;5851;54.050;9.974;2023-12-20T05:02:50;5.80;99.90
11591;DHT22;5851;54.050;9.974;2023-12-20T05:05:17;5.60;99.90
11591;DHT22;5851;54.050;9.974;2023-12-20T05:07:44;5.70;99.90
11591;DHT22;5851;54.050;9.974;2023-12-20T05:10:11;5.70;99.90
11591;DHT22;5851;54.050;9.974;2023-12-20T05:12:38;5.70;99.90
11591;DHT22;5851;54.050;9.974;2023-12-20T05:15:07;5.70;99.90
11591;DHT22;5851;54.050;9.974;2023-12-20T05:17:34;5.70;99.90
11591;DHT22;5851;54.050;9.974;2023-12-20T05:20:01;5.80;99.90
11591;DHT22;5851;54.050;9.974;2023-12-20T05:22:28;5.80;99.90
11591;DHT22;5851;54.050;9.974;2023-12-20T05:24:55;5.80;99.90
11591;DHT22;5851;54.050;9.974;2023-12-20T05:27:22;5.70;99.90
11591;DHT22;5851;54.050;9.974;2023-12-20T05:29:49;5.60;99.90
11591;DHT22;5851;54.050;9.974;2023-12-20T05:32:17;5.70;99.90
11591;DHT22;5851;54.050;9.974;2023-12-20T05:34:44;5.60;99.90
11591;DHT22;5851;54.050;9.974;2023-12-20T05:37:11;5.60;99.90
11591;DHT22;5851;54.050;9.974;2023-12-20T05:39:38;5.70;99.90
11591;DHT22;5851;54.050;9.974;2023-12-20T05:42:05;5.70;99.90
11591;DHT22;5851;54.050;9.974;2023-12-20T05:44:32;5.80;99.90
11591;DHT22;5851;54.050;9.974;2023-12-20T05:46:58;5.80;99.90
11591;DHT22;5851;54.050;9.974;2023-12-20T05:49:27;5.70;99.90
11591;DHT22;5851;54.050;9.974;2023-12-20T05:51:53;5.80;99.90
11591;DHT22;5851;54.050;9.974;2023-12-20T05:54:20;5.80;99.90
11591;DHT22;5851;54.050;9.974;2023-12-20T05:56:47;5.70;99.90
11591;DHT22;5851;54.050;9.974;2023-12-20T05:59:14;5.70;99.90
11591;DHT22;5851;54.050;9.974;2023-12-20T06:01:41;5.80;99.90
11591;DHT22;5851;54.050;9.974;2023-12-20T06:04:08;5.80;99.90
11591;DHT22;5851;54.050;9.974;2023-12-20T06:06:40;5.80;99.90
11591;DHT22;5851;54.050;9.974;2023-12-20T06:09:07;5.80;99.90
11591;DHT22;5851;54.050;9.974;2023-12-20T06:11:34;5.70;99.90
11591;DHT22;5851;54.050;9.974;2023-12-20T06:14:01;5.80;99.90
11591;DHT22;5851;54.050;9.974;2023-12-20T06:16:28;5.80;99.90
11591;DHT22;5851;54.050;9.974;2023-12-20T06:18:55;5.80;99.90
11591;DHT22;5851;54.050;9.974;2023-12-20T06:21:22;5.80;99.90
11591;DHT22;5851;54.050;9.974;2023-12-20T06:23:50;5.80;99.90
11591;DHT22;5851;54.050;9.974;2023-12-20T06:26:17;5.90;99.90
11591;DHT22;5851;54.050;9.974;2023-12-20T06:28:44;5.80;99.90
11591;DHT22;5851;54.050;9.974;2023-12-20T06:31:10;5.80;99.90
11591;DHT22;5851;54.050;9.974;2023-12-20T06:33:38;5.80;99.90
11591;DHT22;5851;54.050;9.974;2023-12-20T06:36:06;5.70;99.90
11591;DHT22;5851;54.050;9.974;2023-12-20T06:38:33;5.80;99.90
11591;DHT22;5851;54.050;9.974;2023-12-20T06:41:01;5.80;99.90
11591;DHT22;5851;54.050;9.974;2023-12-20T06:43:28;5.80;99.90
11591;DHT22;5851;54.050;9.974;2023-12-20T06:45:56;5.80;99.90
11591;DHT22;5851;54.050;9.974;2023-12-20T06:48:23;5.80;99.90
11591;DHT22;5851;54.050;9.974;2023-12-20T06:50:49;5.80;99.90
11591;DHT22;5851;54.050;9.974;2023-12-20T06:53:16;5.80;99.90
11591;DHT22;5851;54.050;9.974;2023-12-20T06:55:43;5.70;99.90
11591;DHT22;5851;54.050;9.974;2023-12-20T06:58:11;5.80;99.90
11591;DHT22;5851;54.050;9.974;2023-12-20T07:00:38;5.80;99.90
11591;DHT22;5851;54.050;9.974;2023-12-20T07:03:05;5.80;99.90
11591;DHT22;5851;54.050;9.974;2023-12-20T07:05:32;5.80;99.90
11591;DHT22;5851;54.050;9.974;2023-12-20T07:07:59;5.80;99.90
11591;DHT22;5851;54.050;9.974;2023-12-20T07:10:26;5.80;99.90
11591;DHT22;5851;54.050;9.974;2023-12-20T07:12:53;5.70;99.90
11591;DHT22;5851;54.050;9.974;2023-12-20T07:15:22;5.60;99.90
11591;DHT22;5851;54.050;9.974;2023-12-20T07:17:48;5.70;99.90
11591;DHT22;5851;54.050;9.974;2023-12-20T07:20:16;5.70;99.90
11591;DHT22;5851;54.050;9.974;2023-12-20T07:22:42;5.60;99.90
11591;DHT22;5851;54.050;9.974;2023-12-20T07:25:09;5.60;99.90
11591;DHT22;5851;54.050;9.974;2023-12-20T07:27:37;5.60;99.90
11591;DHT22;5851;54.050;9.974;2023-12-20T07:30:04;5.70;99.90
11591;DHT22;5851;54.050;9.974;2023-12-20T07:32:33;5.70;99.90
11591;DHT22;5851;54.050;9.974;2023-12-20T07:34:59;5.70;99.90
11591;DHT22;5851;54.050;9.974;2023-12-20T07:37:26;5.80;99.90
11591;DHT22;5851;54.050;9.974;2023-12-20T07:39:53;5.90;99.90
11591;DHT22;5851;54.050;9.974;2023-12-20T07:42:20;5.80;99.90
11591;DHT22;5851;54.050;9.974;2023-12-20T07:44:47;5.90;99.90
11591;DHT22;5851;54.050;9.974;2023-12-20T07:47:14;5.90;99.90
11591;DHT22;5851;54.050;9.974;2023-12-20T07:49:46;5.90;99.90
11591;DHT22;5851;54.050;9.974;2023-12-20T07:52:13;5.90;99.90
11591;DHT22;5851;54.050;9.974;2023-12-20T07:54:40;5.80;99.90
11591;DHT22;5851;54.050;9.974;2023-12-20T07:57:08;5.80;99.90
11591;DHT22;5851;54.050;9.974;2023-12-20T07:59:38;5.90;99.90
11591;DHT22;5851;54.050;9.974;2023-12-20T08:02:05;5.80;99.90
11591;DHT22;5851;54.050;9.974;2023-12-20T08:04:32;5.90;99.90
11591;DHT22;5851;54.050;9.974;2023-12-20T08:07:00;5.90;99.90
11591;DHT22;5851;54.050;9.974;2023-12-20T08:09:27;5.80;99.90
11591;DHT22;5851;54.050;9.974;2023-12-20T08:11:54;5.80;99.90
11591;DHT22;5851;54.050;9.974;2023-12-20T08:14:21;5.70;99.90
11591;DHT22;5851;54.050;9.974;2023-12-20T08:16:48;5.70;99.90
11591;DHT22;5851;54.050;9.974;2023-12-20T08:19:15;5.70;99.90
11591;DHT22;5851;54.050;9.974;2023-12-20T08:21:42;5.70;99.90
11591;DHT22;5851;54.050;9.974;2023-12-20T08:24:25;5.80;99.90
11591;DHT22;5851;54.050;9.974;2023-12-20T08:27:41;5.80;99.90
11591;DHT22;5851;54.050;9.974;2023-12-20T08:30:25;5.90;99.90
11591;DHT22;5851;54.050;9.974;2023-12-20T08:33:26;5.90;99.90
11591;DHT22;5851;54.050;9.974;2023-12-20T08:39:02;5.80;99.90
11591;DHT22;5851;54.050;9.974;2023-12-20T08:41:35;5.80;99.90
11591;DHT22;5851;54.050;9.974;2023-12-20T08:44:03;5.90;99.90
11591;DHT22;5851;54.050;9.974;2023-12-20T08:46:32;5.80;99.90
11591;DHT22;5851;54.050;9.974;2023-12-20T08:49:01;5.80;99.90
11591;DHT22;5851;54.050;9.974;2023-12-20T08:51:28;5.60;99.90
11591;DHT22;5851;54.050;9.974;2023-12-20T08:53:55;5.40;99.90
11591;DHT22;5851;54.050;9.974;2023-12-20T08:56:22;5.40;99.90
11591;DHT22;5851;54.050;9.974;2023-12-20T08:58:52;5.30;99.90
11591;DHT22;5851;54.050;9.974;2023-12-20T09:01:19;5.10;99.90
11591;DHT22;5851;54.050;9.974;2023-12-20T09:03:46;5.10;99.90
11591;DHT22;5851;54.050;9.974;2023-12-20T09:06:13;5.20;99.90
11591;DHT22;5851;54.050;9.974;2023-12-20T09:08:41;5.30;99.90
11591;DHT22;5851;54.050;9.974;2023-12-20T09:11:08;5.40;99.90
11591;DHT22;5851;54.050;9.974;2023-12-20T09:13:35;5.50;99.90
11591;DHT22;5851;54.050;9.974;2023-12-20T09:16:04;5.40;99.90
11591;DHT22;5851;54.050;9.974;2023-12-20T10:20:02;5.20;99.90
11591;DHT22;5851;54.050;9.974;2023-12-20T10:22:34;5.30;99.90
11591;DHT22;5851;54.050;9.974;2023-12-20T10:25:01;5.40;99.90
11591;DHT22;5851;54.050;9.974;2023-12-20T10:27:28;5.40;99.90
11591;DHT22;5851;54.050;9.974;2023-12-20T10:29:55;5.30;99.90
11591;DHT22;5851;54.050;9.974;2023-12-20T10:32:26;5.40;99.90
11591;DHT22;5851;54.050;9.974;2023-12-20T10:34:54;5.50;99.90
11591;DHT22;5851;54.050;9.974;2023-12-20T10:37:23;5.40;99.90
11591;DHT22;5851;54.050;9.974;2023-12-20T10:39:51;5.40;99.90
11591;DHT22;5851;54.050;9.974;2023-12-20T10:42:22;5.40;99.90
11591;DHT22;5851;54.050;9.974;2023-12-20T10:44:49;5.40;99.90
11591;DHT22;5851;54.050;9.974;2023-12-20T10:47:17;5.60;99.90
11591;DHT22;5851;54.050;9.974;2023-12-20T10:49:45;5.50;99.90
11591;DHT22;5851;54.050;9.974;2023-12-20T10:52:12;5.60;99.90
11591;DHT22;5851;54.050;9.974;2023-12-20T10:54:41;5.80;99.90
11591;DHT22;5851;54.050;9.974;2023-12-20T10:57:08;5.60;99.90
11591;DHT22;5851;54.050;9.974;2023-12-20T10:59:37;5.70;99.90
11591;DHT22;5851;54.050;9.974;2023-12-20T11:02:04;5.60;99.90
11591;DHT22;5851;54.050;9.974;2023-12-20T11:04:39;5.40;99.90
11591;DHT22;5851;54.050;9.974;2023-12-20T11:07:18;5.40;99.90
11591;DHT22;5851;54.050;9.974;2023-12-20T11:09:56;5.40;99.90
11591;DHT22;5851;54.050;9.974;2023-12-20T11:12:35;5.40;99.90
11591;DHT22;5851;54.050;9.974;2023-12-20T11:15:06;5.40;99.90
11591;DHT22;5851;54.050;9.974;2023-12-20T11:17:34;5.50;99.90
11591;DHT22;5851;54.050;9.974;2023-12-20T11:20:05;5.40;99.90
11591;DHT22;5851;54.050;9.974;2023-12-20T11:22:33;5.40;99.90
11591;DHT22;5851;54.050;9.974;2023-12-20T11:25:05;5.50;99.90
11591;DHT22;5851;54.050;9.974;2023-12-20T11:27:34;5.40;99.90
11591;DHT22;5851;54.050;9.974;2023-12-20T11:30:03;5.40;99.90
11591;DHT22;5851;54.050;9.974;2023-12-20T11:32:34;5.40;99.90
11591;DHT22;5851;54.050;9.974;2023-12-20T11:35:17;5.40;99.90
11591;DHT22;5851;54.050;9.974;2023-12-20T11:37:45;5.40;99.90
11591;DHT22;5851;54.050;9.974;2023-12-20T11:40:16;5.40;99.90
11591;DHT22;5851;54.050;9.974;2023-12-20T11:42:44;5.40;99.90
11591;DHT22;5851;54.050;9.974;2023-12-20T11:45:14;5.50;99.90
11591;DHT22;5851;54.050;9.974;2023-12-20T11:47:43;5.50;99.90
11591;DHT22;5851;54.050;9.974;2023-12-20T11:50:12;5.50;99.90
11591;DHT22;5851;54.050;9.974;2023-12-20T11:52:39;5.50;99.90
11591;DHT22;5851;54.050;9.974;2023-12-20T11:55:06;5.50;99.90
11591;DHT22;5851;54.050;9.974;2023-12-20T11:57:36;5.60;99.90
11591;DHT22;5851;54.050;9.974;2023-12-20T12:00:03;5.60;99.90
11591;DHT22;5851;54.050;9.974;2023-12-20T12:02:32;5.70;99.90
11591;DHT22;5851;54.050;9.974;2023-12-20T12:04:59;5.70;99.90
11591;DHT22;5851;54.050;9.974;2023-12-20T12:07:26;5.70;99.90
11591;DHT22;5851;54.050;9.974;2023-12-20T12:09:53;5.80;99.90
11591;DHT22;5851;54.050;9.974;2023-12-20T12:13:16;5.90;99.90
11591;DHT22;5851;54.050;9.974;2023-12-20T12:16:22;5.80;99.90
11591;DHT22;5851;54.050;9.974;2023-12-20T12:18:55;5.80;99.90
11591;DHT22;5851;54.050;9.974;2023-12-20T12:21:23;5.80;99.90
11591;DHT22;5851;54.050;9.974;2023-12-20T12:23:50;5.80;99.90
11591;DHT22;5851;54.050;9.974;2023-12-20T12:26:19;5.80;99.90
11591;DHT22;5851;54.050;9.974;2023-12-20T12:54:22;5.90;99.90
11591;DHT22;5851;54.050;9.974;2023-12-20T13:03:20;5.80;99.90
11591;DHT22;5851;54.050;9.974;2023-12-20T13:05:53;5.90;99.90
11591;DHT22;5851;54.050;9.974;2023-12-20T13:09:19;5.90;99.90
11591;DHT22;5851;54.050;9.974;2023-12-20T13:23:42;5.80;99.90
11591;DHT22;5851;54.050;9.974;2023-12-20T13:26:19;5.80;99.90
11591;DHT22;5851;54.050;9.974;2023-12-20T13:31:30;5.80;99.90
11591;DHT22;5851;54.050;9.974;2023-12-20T13:33:58;5.70;99.90
11591;DHT22;5851;54.050;9.974;2023-12-20T13:36:25;5.70;99.90
11591;DHT22;5851;54.050;9.974;2023-12-20T13:38:54;5.80;99.90
11591;DHT22;5851;54.050;9.974;2023-12-20T13:48:32;5.80;99.90
11591;DHT22;5851;54.050;9.974;2023-12-20T13:50:59;5.70;99.90
11591;DHT22;5851;54.050;9.974;2023-12-20T13:53:28;5.70;99.90
11591;DHT22;5851;54.050;9.974;2023-12-20T13:55:55;5.70;99.90
11591;DHT22;5851;54.050;9.974;2023-12-20T13:58:23;5.70;99.90
11591;DHT22;5851;54.050;9.974;2023-12-20T14:00:50;5.80;99.90
11591;DHT22;5851;54.050;9.974;2023-12-20T14:03:17;5.80;99.90
11591;DHT22;5851;54.050;9.974;2023-12-20T14:05:46;5.80;99.90
11591;DHT22;5851;54.050;9.974;2023-12-20T14:08:13;5.80;99.90
11591;DHT22;5851;54.050;9.974;2023-12-20T14:10:40;5.80;99.90
11591;DHT22;5851;54.050;9.974;2023-12-20T14:13:07;5.80;99.90
11591;DHT22;5851;54.050;9.974;2023-12-20T14:15:34;5.80;99.90
11591;DHT22;5851;54.050;9.974;2023-12-20T14:18:04;5.60;99.90
11591;DHT22;5851;54.050;9.974;2023-12-20T14:20:32;5.60;99.90
11591;DHT22;5851;54.050;9.974;2023-12-20T14:23:01;5.50;99.90
11591;DHT22;5851;54.050;9.974;2023-12-20T14:25:28;5.50;99.90
11591;DHT22;5851;54.050;9.974;2023-12-20T14:27:56;5.50;99.90
11591;DHT22;5851;54.050;9.974;2023-12-20T14:30:23;5.40;99.90
11591;DHT22;5851;54.050;9.974;2023-12-20T14:32:50;5.40;99.90
11591;DHT22;5851;54.050;9.974;2023-12-20T14:35:18;5.40;99.90
11591;DHT22;5851;54.050;9.974;2023-12-20T14:37:45;5.30;99.90
11591;DHT22;5851;54.050;9.974;2023-12-20T14:40:14;5.40;99.90
11591;DHT22;5851;54.050;9.974;2023-12-20T14:42:44;5.30;99.90
11591;DHT22;5851;54.050;9.974;2023-12-20T14:45:12;5.30;99.90
11591;DHT22;5851;54.050;9.974;2023-12-20T14:47:40;5.40;99.90
11591;DHT22;5851;54.050;9.974;2023-12-20T14:50:08;5.20;99.90
11591;DHT22;5851;54.050;9.974;2023-12-20T14:52:36;5.20;99.90
11591;DHT22;5851;54.050;9.974;2023-12-20T14:55:03;5.10;99.90
11591;DHT22;5851;54.050;9.974;2023-12-20T14:57:32;5.20;99.90
11591;DHT22;5851;54.050;9.974;2023-12-20T14:59:59;5.20;99.90
11591;DHT22;5851;54.050;9.974;2023-12-20T15:02:26;5.30;99.90
11591;DHT22;5851;54.050;9.974;2023-12-20T15:04:53;5.30;99.90
11591;DHT22;5851;54.050;9.974;2023-12-20T15:07:20;5.20;99.90
11591;DHT22;5851;54.050;9.974;2023-12-20T15:09:48;5.10;99.90
11591;DHT22;5851;54.050;9.974;2023-12-20T15:12:15;5.30;99.90
11591;DHT22;5851;54.050;9.974;2023-12-20T15:14:43;5.30;99.90
11591;DHT22;5851;54.050;9.974;2023-12-20T15:17:10;5.30;99.90
11591;DHT22;5851;54.050;9.974;2023-12-20T15:19:37;5.30;99.90
11591;DHT22;5851;54.050;9.974;2023-12-20T15:22:04;5.30;99.90
11591;DHT22;5851;54.050;9.974;2023-12-20T15:24:31;5.30;99.90
11591;DHT22;5851;54.050;9.974;2023-12-20T15:27:04;5.30;99.90
11591;DHT22;5851;54.050;9.974;2023-12-20T15:29:31;5.30;99.90
11591;DHT22;5851;54.050;9.974;2023-12-20T15:31:59;5.30;99.90
11591;DHT22;5851;54.050;9.974;2023-12-20T15:34:26;5.30;99.90
11591;DHT22;5851;54.050;9.974;2023-12-20T15:36:53;5.30;99.90
11591;DHT22;5851;54.050;9.974;2023-12-20T15:39:20;5.40;99.90
11591;DHT22;5851;54.050;9.974;2023-12-20T15:41:47;5.40;99.90
11591;DHT22;5851;54.050;9.974;2023-12-20T15:44:14;5.30;99.90
11591;DHT22;5851;54.050;9.974;2023-12-20T15:46:42;5.30;99.90
11591;DHT22;5851;54.050;9.974;2023-12-20T15:49:10;5.30;99.90
11591;DHT22;5851;54.050;9.974;2023-12-20T15:51:37;5.30;99.90
11591;DHT22;5851;54.050;9.974;2023-12-20T15:54:04;5.40;99.90
11591;DHT22;5851;54.050;9.974;2023-12-20T15:56:34;5.40;99.90
11591;DHT22;5851;54.050;9.974;2023-12-20T15:59:02;5.30;99.90
11591;DHT22;5851;54.050;9.974;2023-12-20T16:01:29;5.40;99.90
11591;DHT22;5851;54.050;9.974;2023-12-20T16:03:57;5.30;99.90
11591;DHT22;5851;54.050;9.974;2023-12-20T16:06:25;5.30;99.90
11591;DHT22;5851;54.050;9.974;2023-12-20T16:08:52;5.30;99.90
11591;DHT22;5851;54.050;9.974;2023-12-20T16:11:19;5.20;99.90
11591;DHT22;5851;54.050;9.974;2023-12-20T16:13:46;5.20;99.90
11591;DHT22;5851;54.050;9.974;2023-12-20T16:16:13;5.30;99.90
11591;DHT22;5851;54.050;9.974;2023-12-20T16:18:40;5.30;99.90
11591;DHT22;5851;54.050;9.974;2023-12-20T16:21:07;5.20;99.90
11591;DHT22;5851;54.050;9.974;2023-12-20T16:23:35;5.30;99.90
11591;DHT22;5851;54.050;9.974;2023-12-20T16:26:02;5.30;99.90
11591;DHT22;5851;54.050;9.974;2023-12-20T16:28:29;5.30;99.90
11591;DHT22;5851;54.050;9.974;2023-12-20T16:30:56;5.40;99.90
11591;DHT22;5851;54.050;9.974;2023-12-20T16:33:23;5.30;99.90
11591;DHT22;5851;54.050;9.974;2023-12-20T16:35:50;5.40;99.90
11591;DHT22;5851;54.050;9.974;2023-12-20T16:38:17;5.30;99.90
11591;DHT22;5851;54.050;9.974;2023-12-20T16:40:45;5.20;99.90
11591;DHT22;5851;54.050;9.974;2023-12-20T16:43:12;5.20;99.90
11591;DHT22;5851;54.050;9.974;2023-12-20T16:45:39;5.20;99.90
11591;DHT22;5851;54.050;9.974;2023-12-20T16:48:06;5.20;99.90
11591;DHT22;5851;54.050;9.974;2023-12-20T16:50:33;5.20;99.90
11591;DHT22;5851;54.050;9.974;2023-12-20T16:53:00;5.20;99.90
11591;DHT22;5851;54.050;9.974;2023-12-20T16:55:27;5.30;99.90
11591;DHT22;5851;54.050;9.974;2023-12-20T16:57:55;5.30;99.90
11591;DHT22;5851;54.050;9.974;2023-12-20T17:00:22;5.30;99.90
11591;DHT22;5851;54.050;9.974;2023-12-20T17:02:52;5.30;99.90
11591;DHT22;5851;54.050;9.974;2023-12-20T17:05:19;5.30;99.90
11591;DHT22;5851;54.050;9.974;2023-12-20T17:07:45;5.30;99.90
11591;DHT22;5851;54.050;9.974;2023-12-20T17:10:12;5.30;99.90
11591;DHT22;5851;54.050;9.974;2023-12-20T17:12:39;5.30;99.90
11591;DHT22;5851;54.050;9.974;2023-12-20T17:15:09;5.30;99.90
11591;DHT22;5851;54.050;9.974;2023-12-20T17:17:36;5.20;99.90
11591;DHT22;5851;54.050;9.974;2023-12-20T17:20:04;5.20;99.90
11591;DHT22;5851;54.050;9.974;2023-12-20T17:22:31;5.20;99.90
11591;DHT22;5851;54.050;9.974;2023-12-20T17:24:58;5.10;99.90
11591;DHT22;5851;54.050;9.974;2023-12-20T17:27:24;5.10;99.90
11591;DHT22;5851;54.050;9.974;2023-12-20T17:29:51;5.00;99.90
11591;DHT22;5851;54.050;9.974;2023-12-20T17:32:20;5.10;99.90
11591;DHT22;5851;54.050;9.974;2023-12-20T17:34:47;5.10;99.90
11591;DHT22;5851;54.050;9.974;2023-12-20T17:37:14;5.10;99.90
11591;DHT22;5851;54.050;9.974;2023-12-20T17:39:41;5.20;99.90
11591;DHT22;5851;54.050;9.974;2023-12-20T17:42:08;5.20;99.90
11591;DHT22;5851;54.050;9.974;2023-12-20T17:44:35;5.20;99.90
11591;DHT22;5851;54.050;9.974;2023-12-20T17:47:03;5.10;99.90
11591;DHT22;5851;54.050;9.974;2023-12-20T17:49:31;5.10;99.90
11591;DHT22;5851;54.050;9.974;2023-12-20T17:51:59;5.20;99.90
11591;DHT22;5851;54.050;9.974;2023-12-20T17:54:26;5.20;99.90
11591;DHT22;5851;54.050;9.974;2023-12-20T17:56:54;5.30;99.90
11591;DHT22;5851;54.050;9.974;2023-12-20T17:59:22;5.30;99.90
11591;DHT22;5851;54.050;9.974;2023-12-20T18:01:49;5.30;99.90
11591;DHT22;5851;54.050;9.974;2023-12-20T18:04:16;5.30;99.90
11591;DHT22;5851;54.050;9.974;2023-12-20T18:06:47;5.30;99.90